createdAt,value
2018-06-14T00:00:49.661Z,95.70
2018-06-14T00:03:18.199Z,95.70
2018-06-14T00:05:46.735Z,95.90
2018-06-14T00:08:15.157Z,96.20
2018-06-14T00:10:43.599Z,96.40
2018-06-14T00:13:12.040Z,96.60
2018-06-14T00:15:40.445Z,96.80
2018-06-14T00:18:08.889Z,97.00
2018-06-14T00:20:37.357Z,97.20
2018-06-14T00:23:05.979Z,97.30
2018-06-14T00:25:34.456Z,97.40
2018-06-14T00:28:02.856Z,97.60
2018-06-14T00:30:31.280Z,97.70
2018-06-14T00:33:00.277Z,97.60
2018-06-14T00:35:28.688Z,97.70
2018-06-14T00:37:57.121Z,97.80
2018-06-14T00:40:25.553Z,97.90
2018-06-14T00:42:54.023Z,98.20
2018-06-14T00:45:22.568Z,98.30
2018-06-14T00:47:50.976Z,98.40
2018-06-14T00:50:19.411Z,98.50
2018-06-14T00:52:47.849Z,98.70
2018-06-14T00:55:16.268Z,98.90
2018-06-14T00:57:44.730Z,98.90
2018-06-14T01:00:13.139Z,98.90
2018-06-14T01:02:41.556Z,98.90
2018-06-14T01:05:10.005Z,99.20
2018-06-14T01:07:38.404Z,99.30
2018-06-14T01:10:06.857Z,99.40
2018-06-14T01:12:35.294Z,99.40
2018-06-14T01:15:03.772Z,99.60
2018-06-14T01:17:32.417Z,99.50
2018-06-14T01:20:01.024Z,99.20
2018-06-14T01:22:29.435Z,99.40
2018-06-14T01:24:57.838Z,99.50
2018-06-14T01:27:26.247Z,99.50
2018-06-14T01:29:54.701Z,99.70
2018-06-14T01:32:23.097Z,99.80
2018-06-14T01:34:51.497Z,99.90
2018-06-14T01:37:29.867Z,99.90
2018-06-14T01:39:58.255Z,99.90
2018-06-14T01:42:26.655Z,99.90
2018-06-14T01:44:55.078Z,99.90
2018-06-14T01:47:23.491Z,99.90
2018-06-14T01:49:52.031Z,99.90
2018-06-14T01:52:20.435Z,99.90
2018-06-14T01:54:48.935Z,99.90
2018-06-14T01:57:17.347Z,99.90
2018-06-14T01:59:45.781Z,99.90
2018-06-14T02:02:14.453Z,99.90
2018-06-14T02:04:48.735Z,99.90
2018-06-14T02:07:17.183Z,99.90
2018-06-14T02:12:13.731Z,99.90
2018-06-14T02:14:42.166Z,99.90
2018-06-14T02:17:10.640Z,99.90
2018-06-14T02:19:39.173Z,99.70
2018-06-14T02:22:07.560Z,99.70
2018-06-14T02:24:36.028Z,99.70
2018-06-14T02:27:04.450Z,99.50
2018-06-14T02:29:32.882Z,99.30
2018-06-14T02:32:01.303Z,99.00
2018-06-14T02:34:29.736Z,98.90
2018-06-14T02:36:58.180Z,98.90
2018-06-14T02:39:26.642Z,98.90
2018-06-14T02:41:55.192Z,98.90
2018-06-14T02:44:23.672Z,98.70
2018-06-14T02:46:52.084Z,98.60
2018-06-14T02:49:20.474Z,98.50
2018-06-14T02:51:48.880Z,98.60
2018-06-14T02:54:17.337Z,99.00
2018-06-14T02:56:45.728Z,98.90
2018-06-14T02:59:14.149Z,98.90
2018-06-14T03:01:42.564Z,99.30
2018-06-14T03:04:11.001Z,99.80
2018-06-14T03:06:39.380Z,99.60
2018-06-14T03:09:08.964Z,99.90
2018-06-14T03:11:37.477Z,99.90
2018-06-14T03:14:06.003Z,99.90
2018-06-14T03:16:34.471Z,99.90
2018-06-14T03:19:02.913Z,99.90
2018-06-14T03:21:31.343Z,99.80
2018-06-14T03:23:59.736Z,99.70
2018-06-14T03:26:28.207Z,99.70
2018-06-14T03:28:56.626Z,99.80
2018-06-14T03:31:25.008Z,99.90
2018-06-14T03:33:53.589Z,99.90
2018-06-14T03:36:22.322Z,99.90
2018-06-14T03:38:50.860Z,99.90
2018-06-14T03:41:19.265Z,99.90
2018-06-14T03:43:47.684Z,99.90
2018-06-14T03:46:16.116Z,99.90
2018-06-14T03:48:44.556Z,99.90
2018-06-14T03:51:13.020Z,99.90
2018-06-14T03:53:41.432Z,99.90
2018-06-14T03:56:10.438Z,99.80
2018-06-14T03:58:38.849Z,99.90
2018-06-14T04:01:07.371Z,99.80
2018-06-14T04:03:35.953Z,99.80
2018-06-14T04:06:04.333Z,99.90
2018-06-14T04:08:32.905Z,99.80
2018-06-14T04:11:01.321Z,99.80
2018-06-14T04:15:57.861Z,98.90
2018-06-14T04:23:22.563Z,98.30
2018-06-14T04:25:50.983Z,98.40
2018-06-14T04:28:19.411Z,98.30
2018-06-14T04:30:47.844Z,98.30
2018-06-14T04:33:16.295Z,98.50
2018-06-14T04:35:44.726Z,98.40
2018-06-14T04:38:13.152Z,98.20
2018-06-14T04:40:41.582Z,97.90
2018-06-14T04:43:10.033Z,97.80
2018-06-14T04:45:38.484Z,97.30
2018-06-14T04:48:06.886Z,97.00
2018-06-14T04:50:35.307Z,97.20
2018-06-14T04:53:03.815Z,97.00
2018-06-14T04:55:32.226Z,97.20
2018-06-14T04:58:00.761Z,97.10
2018-06-14T05:00:29.164Z,96.90
2018-06-14T05:02:57.600Z,96.80
2018-06-14T05:05:26.099Z,96.70
2018-06-14T05:07:54.514Z,96.60
2018-06-14T05:10:22.908Z,96.40
2018-06-14T05:12:51.376Z,96.90
2018-06-14T05:15:19.846Z,96.90
2018-06-14T05:17:48.456Z,96.40
2018-06-14T05:20:16.996Z,96.50
2018-06-14T05:22:46.810Z,96.80
2018-06-14T05:25:15.228Z,96.80
2018-06-14T05:27:43.736Z,96.90
2018-06-14T05:30:12.145Z,97.00
2018-06-14T05:32:40.644Z,96.90
2018-06-14T05:35:09.120Z,96.20
2018-06-14T05:37:37.592Z,95.80
2018-06-14T05:40:06.068Z,95.40
2018-06-14T05:42:34.527Z,95.20
2018-06-14T05:45:02.988Z,94.90
2018-06-14T05:47:31.461Z,94.80
2018-06-14T05:49:59.945Z,95.00
2018-06-14T05:52:28.439Z,94.80
2018-06-14T05:54:56.881Z,94.20
2018-06-14T05:57:25.877Z,93.50
2018-06-14T05:59:54.297Z,92.90
2018-06-14T06:02:22.713Z,92.80
2018-06-14T06:04:51.149Z,92.30
2018-06-14T06:07:19.586Z,91.80
2018-06-14T06:09:49.041Z,90.90
2018-06-14T06:12:17.445Z,91.00
2018-06-14T06:14:45.867Z,90.60
2018-06-14T06:17:14.282Z,90.30
2018-06-14T06:19:42.942Z,90.20
2018-06-14T06:22:11.376Z,90.10
2018-06-14T06:24:39.833Z,90.00
2018-06-14T06:27:08.309Z,89.10
2018-06-14T06:29:36.773Z,87.60
2018-06-14T06:32:05.267Z,87.60
2018-06-14T06:34:33.667Z,86.40
2018-06-14T06:37:02.080Z,86.80
2018-06-14T06:39:30.500Z,85.70
2018-06-14T06:41:58.988Z,86.00
2018-06-14T06:44:27.413Z,83.60
2018-06-14T06:46:55.817Z,84.20
2018-06-14T06:49:24.303Z,83.50
2018-06-14T06:51:52.739Z,81.80
2018-06-14T06:54:21.213Z,81.70
2018-06-14T06:56:49.631Z,80.80
2018-06-14T06:59:18.052Z,81.70
2018-06-14T07:01:46.516Z,79.50
2018-06-14T07:04:14.916Z,78.50
2018-06-14T07:06:43.392Z,78.70
2018-06-14T07:09:12.604Z,79.30
2018-06-14T07:11:41.404Z,78.40
2018-06-14T07:14:09.846Z,77.70
2018-06-14T07:16:39.073Z,76.20
2018-06-14T07:19:07.720Z,76.70
2018-06-14T07:21:36.525Z,74.70
2018-06-14T07:24:05.090Z,74.30
2018-06-14T07:26:33.537Z,74.70
2018-06-14T07:29:01.970Z,74.40
2018-06-14T07:31:30.384Z,74.90
2018-06-14T07:33:58.864Z,73.30
2018-06-14T07:36:27.269Z,73.50
2018-06-14T07:38:55.684Z,73.30
2018-06-14T07:41:32.334Z,72.40
2018-06-14T07:44:00.715Z,71.40
2018-06-14T07:46:29.143Z,69.10
2018-06-14T07:48:57.544Z,67.10
2018-06-14T07:51:25.986Z,68.40
2018-06-14T07:53:54.407Z,68.00
2018-06-14T07:56:22.864Z,68.40
2018-06-14T07:58:51.275Z,63.90
2018-06-14T08:01:19.829Z,64.60
2018-06-14T08:03:48.731Z,64.80
2018-06-14T08:06:17.165Z,65.20
2018-06-14T08:08:45.671Z,63.50
2018-06-14T08:11:14.313Z,61.50
2018-06-14T08:13:42.683Z,61.90
2018-06-14T08:16:11.189Z,62.60
2018-06-14T08:18:39.647Z,62.70
2018-06-14T08:21:08.236Z,61.70
2018-06-14T08:23:36.733Z,61.70
2018-06-14T08:26:05.165Z,59.30
2018-06-14T08:28:33.630Z,58.70
2018-06-14T08:31:02.048Z,58.10
2018-06-14T08:33:30.529Z,58.80
2018-06-14T08:35:58.958Z,58.50
2018-06-14T08:38:27.359Z,60.40
2018-06-14T08:40:55.813Z,58.10
2018-06-14T08:43:24.375Z,54.20
2018-06-14T08:45:52.820Z,56.30
2018-06-14T08:48:21.259Z,53.90
2018-06-14T08:50:49.683Z,56.70
2018-06-14T08:53:18.076Z,58.10
2018-06-14T08:55:46.568Z,57.90
2018-06-14T08:58:15.029Z,57.80
2018-06-14T09:00:43.468Z,60.70
2018-06-14T09:03:12.098Z,63.20
2018-06-14T09:05:40.520Z,63.90
2018-06-14T09:08:09.088Z,64.30
2018-06-14T09:10:37.509Z,64.40
2018-06-14T09:13:06.917Z,64.30
2018-06-14T09:15:35.344Z,63.10
2018-06-14T09:18:03.785Z,64.00
2018-06-14T09:20:32.400Z,63.00
2018-06-14T09:23:00.917Z,62.50
2018-06-14T09:25:29.383Z,62.80
2018-06-14T09:27:57.782Z,60.80
2018-06-14T09:30:26.271Z,60.00
2018-06-14T09:32:54.676Z,62.80
2018-06-14T09:35:23.111Z,61.00
2018-06-14T09:37:51.560Z,60.50
2018-06-14T09:40:20.012Z,58.90
2018-06-14T09:42:48.510Z,57.40
2018-06-14T09:45:16.940Z,55.50
2018-06-14T09:47:45.500Z,54.10
2018-06-14T09:50:13.960Z,53.90
2018-06-14T09:52:42.341Z,54.70
2018-06-14T09:55:10.764Z,53.60
2018-06-14T09:57:39.213Z,55.10
2018-06-14T10:00:07.700Z,55.00
2018-06-14T10:02:36.149Z,56.10
2018-06-14T10:05:04.691Z,56.20
2018-06-14T10:07:33.187Z,53.60
2018-06-14T10:10:01.575Z,53.70
2018-06-14T10:12:33.712Z,52.20
2018-06-14T10:15:02.347Z,53.80
2018-06-14T10:17:30.757Z,54.80
2018-06-14T10:19:59.213Z,53.40
2018-06-14T10:22:27.595Z,53.40
2018-06-14T10:24:56.180Z,52.90
2018-06-14T10:27:24.619Z,53.40
2018-06-14T10:29:53.069Z,52.90
2018-06-14T10:32:21.493Z,51.20
2018-06-14T10:34:49.901Z,53.80
2018-06-14T10:37:18.408Z,55.30
2018-06-14T10:39:46.785Z,54.60
2018-06-14T10:42:15.427Z,54.60
2018-06-14T10:44:44.012Z,55.20
2018-06-14T10:47:12.523Z,57.00
2018-06-14T10:49:41.015Z,56.10
2018-06-14T10:52:09.440Z,56.60
2018-06-14T10:54:37.859Z,54.20
2018-06-14T10:57:06.384Z,54.80
2018-06-14T10:59:34.867Z,56.10
2018-06-14T11:02:03.280Z,55.50
2018-06-14T11:04:31.908Z,55.30
2018-06-14T11:07:00.302Z,56.00
2018-06-14T11:09:28.761Z,55.80
2018-06-14T11:11:57.183Z,57.20
2018-06-14T11:14:25.572Z,56.00
2018-06-14T11:16:54.080Z,53.30
2018-06-14T11:19:22.464Z,52.50
2018-06-14T11:21:50.882Z,53.20
2018-06-14T11:24:19.364Z,52.60
2018-06-14T11:26:47.785Z,53.70
2018-06-14T11:29:16.237Z,56.20
2018-06-14T11:31:44.680Z,55.50
2018-06-14T11:34:13.297Z,55.10
2018-06-14T11:36:41.749Z,54.40
2018-06-14T11:39:10.145Z,52.10
2018-06-14T11:41:38.576Z,53.40
2018-06-14T11:44:06.972Z,52.30
2018-06-14T11:46:35.404Z,51.90
2018-06-14T11:49:03.843Z,52.80
2018-06-14T11:51:32.452Z,54.30
2018-06-14T11:54:00.933Z,53.90
2018-06-14T11:56:29.392Z,55.30
2018-06-14T11:58:58.391Z,54.20
2018-06-14T12:01:26.988Z,54.40
2018-06-14T12:03:55.398Z,53.40
2018-06-14T12:06:23.841Z,51.60
2018-06-14T12:08:52.412Z,53.20
2018-06-14T12:11:20.976Z,54.20
2018-06-14T12:13:49.426Z,53.40
2018-06-14T12:16:17.923Z,53.10
2018-06-14T12:18:46.402Z,52.60
2018-06-14T12:21:14.812Z,54.00
2018-06-14T12:23:43.252Z,53.90
2018-06-14T12:26:11.660Z,52.10
2018-06-14T12:28:40.090Z,52.60
2018-06-14T12:31:08.632Z,52.70
2018-06-14T12:33:37.213Z,52.90
2018-06-14T12:36:05.881Z,53.20
2018-06-14T12:38:34.545Z,53.30
2018-06-14T12:41:02.959Z,54.00
2018-06-14T12:43:31.383Z,54.80
2018-06-14T12:45:59.783Z,54.10
2018-06-14T12:48:28.206Z,55.50
2018-06-14T12:50:56.616Z,54.50
2018-06-14T12:53:25.229Z,55.40
2018-06-14T12:55:53.732Z,55.70
2018-06-14T12:58:22.168Z,54.00
2018-06-14T13:00:50.572Z,54.70
2018-06-14T13:03:19.020Z,55.00
2018-06-14T13:05:47.438Z,55.20
2018-06-14T13:08:15.876Z,55.30
2018-06-14T13:10:44.284Z,54.50
2018-06-14T13:13:12.919Z,54.10
2018-06-14T13:15:41.357Z,54.80
2018-06-14T13:18:09.856Z,54.30
2018-06-14T13:20:38.279Z,54.90
2018-06-14T13:23:06.730Z,55.10
2018-06-14T13:25:35.166Z,52.80
2018-06-14T13:28:03.583Z,53.60
2018-06-14T13:30:31.968Z,53.80
2018-06-14T13:33:00.488Z,53.90
2018-06-14T13:35:29.032Z,53.10
2018-06-14T13:37:57.407Z,52.90
2018-06-14T13:40:25.836Z,53.90
2018-06-14T13:42:54.303Z,55.20
2018-06-14T13:45:22.704Z,55.30
2018-06-14T13:47:51.133Z,54.30
2018-06-14T13:50:19.588Z,54.90
2018-06-14T13:52:48.970Z,55.50
2018-06-14T13:55:17.504Z,56.00
2018-06-14T13:57:46.060Z,56.10
2018-06-14T14:00:14.414Z,55.70
2018-06-14T14:02:42.808Z,56.10
2018-06-14T14:05:11.224Z,55.70
2018-06-14T14:07:39.608Z,54.90
2018-06-14T14:10:07.984Z,55.30
2018-06-14T14:12:36.384Z,55.40
2018-06-14T14:15:05.148Z,56.30
2018-06-14T14:17:33.570Z,55.40
2018-06-14T14:20:02.050Z,55.50
2018-06-14T14:22:30.448Z,55.40
2018-06-14T14:24:58.924Z,55.40
2018-06-14T14:27:27.381Z,54.80
2018-06-14T14:29:55.780Z,55.40
2018-06-14T14:32:24.243Z,55.90
2018-06-14T14:34:52.660Z,56.30
2018-06-14T14:37:21.123Z,56.00
2018-06-14T14:39:49.553Z,56.00
2018-06-14T14:42:18.035Z,55.70
2018-06-14T14:44:46.411Z,56.50
2018-06-14T14:47:14.885Z,58.20
2018-06-14T14:49:44.896Z,57.80
2018-06-14T14:52:13.337Z,57.60
2018-06-14T14:54:41.812Z,57.80
2018-06-14T14:57:10.317Z,57.80
2018-06-14T14:59:38.813Z,57.90
2018-06-14T15:02:07.283Z,58.10
2018-06-14T15:04:35.819Z,58.00
2018-06-14T15:07:04.275Z,59.80
2018-06-14T15:09:32.704Z,61.30
2018-06-14T15:12:01.176Z,63.30
2018-06-14T15:14:29.775Z,63.30
2018-06-14T15:16:58.209Z,64.20
2018-06-14T15:19:26.693Z,63.60
2018-06-14T15:21:55.225Z,64.00
2018-06-14T15:24:23.661Z,64.50
2018-06-14T15:26:52.150Z,64.70
2018-06-14T15:29:20.595Z,65.20
2018-06-14T15:31:49.102Z,65.80
2018-06-14T15:34:17.790Z,67.60
2018-06-14T15:36:46.288Z,69.40
2018-06-14T15:39:14.744Z,71.20
2018-06-14T15:41:43.244Z,73.00
2018-06-14T15:44:11.679Z,74.30
2018-06-14T15:46:40.301Z,76.50
2018-06-14T15:49:08.748Z,78.70
2018-06-14T15:51:37.268Z,79.70
2018-06-14T15:56:38.295Z,83.80
2018-06-14T15:59:08.106Z,86.50
2018-06-14T16:01:36.786Z,86.80
2018-06-14T16:04:05.797Z,89.00
2018-06-14T16:06:34.380Z,90.90
2018-06-14T16:09:02.975Z,91.20
2018-06-14T16:11:31.443Z,92.30
2018-06-14T16:13:59.879Z,92.40
2018-06-14T16:16:28.359Z,92.80
2018-06-14T16:18:56.787Z,93.40
2018-06-14T16:21:25.417Z,93.50
2018-06-14T16:23:53.871Z,93.90
2018-06-14T16:26:22.349Z,94.00
2018-06-14T16:28:50.764Z,94.00
2018-06-14T16:31:19.290Z,94.70
2018-06-14T16:33:47.848Z,94.50
2018-06-14T16:36:16.544Z,95.20
2018-06-14T16:38:45.428Z,95.20
2018-06-14T16:41:15.237Z,95.50
2018-06-14T16:43:43.761Z,95.80
2018-06-14T16:46:12.336Z,96.00
2018-06-14T16:48:40.864Z,96.20
2018-06-14T16:51:09.274Z,96.30
2018-06-14T16:53:37.812Z,96.60
2018-06-14T16:56:06.467Z,96.70
2018-06-14T16:58:35.284Z,96.70
2018-06-14T17:01:03.771Z,96.90
2018-06-14T17:03:32.283Z,96.80
2018-06-14T17:06:00.789Z,96.80
2018-06-14T17:08:29.272Z,96.80
2018-06-14T17:10:57.890Z,97.00
2018-06-14T17:13:26.321Z,97.50
2018-06-14T17:15:54.817Z,98.00
2018-06-14T17:18:23.232Z,98.00
2018-06-14T17:20:51.781Z,98.20
2018-06-14T17:23:20.220Z,98.40
2018-06-14T17:25:48.650Z,98.30
2018-06-14T17:28:17.073Z,97.90
2018-06-14T17:30:45.503Z,98.40
2018-06-14T17:33:13.984Z,98.20
2018-06-14T17:35:42.387Z,98.20
2018-06-14T17:38:10.811Z,97.90
2018-06-14T17:40:39.596Z,98.20
2018-06-14T17:43:08.325Z,98.00
2018-06-14T17:45:36.857Z,98.00
2018-06-14T17:48:05.534Z,98.20
2018-06-14T17:50:34.004Z,98.90
2018-06-14T17:53:02.493Z,98.20
2018-06-14T17:55:30.998Z,97.60
2018-06-14T17:57:59.447Z,97.30
2018-06-14T18:00:27.901Z,97.30
2018-06-14T18:02:56.345Z,98.00
2018-06-14T18:05:24.828Z,98.30
2018-06-14T18:07:53.362Z,98.40
2018-06-14T18:10:21.815Z,98.30
2018-06-14T18:12:50.262Z,98.30
2018-06-14T18:15:18.743Z,98.50
2018-06-14T18:17:47.185Z,99.30
2018-06-14T18:20:15.672Z,99.80
2018-06-14T18:22:44.291Z,99.90
2018-06-14T18:25:13.827Z,99.90
2018-06-14T18:27:42.485Z,99.90
2018-06-14T18:30:10.903Z,99.90
2018-06-14T18:32:39.932Z,99.90
2018-06-14T18:35:08.384Z,99.90
2018-06-14T18:40:05.183Z,99.90
2018-06-14T18:42:33.735Z,99.90
2018-06-14T18:45:03.763Z,99.90
2018-06-14T18:47:32.229Z,99.90
2018-06-14T18:50:00.734Z,99.90
2018-06-14T18:52:29.205Z,99.90
2018-06-14T18:54:57.679Z,99.90
2018-06-14T18:57:26.135Z,99.90
2018-06-14T18:59:54.638Z,99.90
2018-06-14T19:02:23.079Z,99.90
2018-06-14T19:04:51.569Z,99.90
2018-06-14T19:07:20.090Z,99.90
2018-06-14T19:09:48.611Z,99.90
2018-06-14T19:12:17.225Z,99.90
2018-06-14T19:14:45.996Z,99.90
2018-06-14T19:17:14.523Z,99.90
2018-06-14T19:19:43.014Z,99.90
2018-06-14T19:22:11.484Z,99.90
2018-06-14T19:24:39.970Z,99.90
2018-06-14T19:27:08.430Z,99.90
2018-06-14T19:29:36.866Z,99.90
2018-06-14T19:32:05.604Z,99.90
2018-06-14T19:34:34.166Z,99.90
2018-06-14T19:37:02.832Z,99.90
2018-06-14T19:39:32.276Z,99.90
2018-06-14T19:42:01.097Z,99.90
2018-06-14T19:44:29.672Z,99.90
2018-06-14T19:46:58.157Z,99.90
2018-06-14T19:51:56.411Z,99.90
2018-06-14T19:54:25.854Z,99.90
2018-06-14T19:56:54.288Z,99.90
2018-06-14T19:59:22.748Z,99.90
2018-06-14T20:01:51.414Z,99.90
2018-06-14T20:04:19.962Z,99.90
2018-06-14T20:06:49.302Z,99.90
2018-06-14T20:09:18.760Z,99.90
2018-06-14T20:11:47.234Z,99.90
2018-06-14T20:14:15.734Z,99.90
2018-06-14T20:16:44.599Z,99.90
2018-06-14T20:19:13.026Z,99.90
2018-06-14T20:21:41.544Z,99.90
2018-06-14T20:24:10.096Z,99.90
2018-06-14T20:26:45.253Z,99.90
2018-06-14T20:29:13.804Z,99.90
2018-06-14T20:31:42.231Z,99.90
2018-06-14T20:34:10.725Z,99.90
2018-06-14T20:36:39.196Z,99.90
2018-06-14T20:39:10.912Z,99.90
2018-06-14T20:41:39.365Z,99.90
2018-06-14T20:44:08.133Z,99.90
2018-06-14T20:46:36.636Z,99.90
2018-06-14T20:49:05.104Z,99.90
2018-06-14T20:51:33.589Z,99.90
2018-06-14T20:54:02.103Z,99.90
2018-06-14T20:56:30.548Z,99.90
2018-06-14T20:58:59.209Z,99.90
2018-06-14T21:01:27.612Z,99.90
2018-06-14T21:03:56.321Z,99.90
2018-06-14T21:06:25.086Z,99.90
2018-06-14T21:08:53.503Z,99.90
2018-06-14T21:11:21.984Z,99.90
2018-06-14T21:13:50.408Z,99.90
2018-06-14T21:16:18.952Z,99.90
2018-06-14T21:18:47.453Z,99.90
2018-06-14T21:21:16.884Z,99.90
2018-06-14T21:23:45.325Z,99.90
2018-06-14T21:26:13.818Z,99.90
2018-06-14T21:28:42.328Z,99.90
2018-06-14T21:31:10.783Z,99.90
2018-06-14T21:33:39.400Z,99.90
2018-06-14T21:36:07.832Z,99.90
2018-06-14T21:38:36.281Z,99.90
2018-06-14T21:41:04.755Z,99.90
2018-06-14T21:43:33.247Z,99.90
2018-06-14T21:46:01.921Z,99.90
2018-06-14T21:48:30.481Z,99.90
2018-06-14T21:50:58.968Z,99.90
2018-06-14T21:53:27.632Z,99.90
2018-06-14T21:55:56.106Z,99.90
2018-06-14T21:58:25.348Z,99.90
2018-06-14T22:00:54.244Z,99.90
2018-06-14T22:03:28.152Z,99.90
2018-06-14T22:05:56.596Z,99.90
2018-06-14T22:08:25.092Z,99.90
2018-06-14T22:10:53.672Z,99.90
2018-06-14T22:13:22.088Z,99.90
2018-06-14T22:15:50.545Z,99.90
2018-06-14T22:18:18.975Z,99.90
2018-06-14T22:20:47.459Z,99.90
2018-06-14T22:23:16.043Z,99.90
2018-06-14T22:25:44.552Z,99.90
2018-06-14T22:28:13.161Z,99.90
2018-06-14T22:30:41.673Z,99.90
2018-06-14T22:33:21.544Z,99.90
2018-06-14T22:35:49.979Z,99.90
2018-06-14T22:38:18.515Z,99.90
2018-06-14T22:40:46.946Z,99.90
2018-06-14T22:43:15.423Z,99.90
2018-06-14T22:45:43.935Z,99.90
2018-06-14T22:48:12.603Z,99.90
2018-06-14T22:50:52.323Z,99.90
2018-06-14T22:53:20.802Z,99.90
2018-06-14T22:55:49.283Z,99.90
2018-06-14T22:58:17.769Z,99.90
2018-06-14T23:01:52.583Z,99.90
2018-06-14T23:04:22.303Z,99.90
2018-06-14T23:06:50.879Z,99.90
2018-06-14T23:10:39.627Z,99.90
2018-06-14T23:13:09.243Z,99.90
2018-06-14T23:15:37.773Z,99.90
2018-06-14T23:18:06.203Z,99.90
2018-06-14T23:20:35.313Z,99.90
2018-06-14T23:23:04.521Z,99.90
2018-06-14T23:25:33.387Z,99.90
2018-06-14T23:28:01.886Z,99.90
2018-06-14T23:30:32.807Z,99.90
2018-06-14T23:33:01.287Z,99.90
2018-06-14T23:35:29.659Z,99.90
2018-06-14T23:37:58.113Z,99.90
2018-06-14T23:40:26.527Z,99.90
2018-06-14T23:42:55.143Z,99.90
2018-06-14T23:45:23.581Z,99.90
2018-06-14T23:47:52.064Z,99.90
2018-06-14T23:50:20.548Z,99.90
2018-06-14T23:52:48.989Z,99.90
2018-06-14T23:55:17.549Z,99.90
2018-06-14T23:57:45.962Z,99.90
